Delta, Utah
Current Conditions -  °F | °C
As of 12:55 PM on Thursday 30 Oct 2014 (Local Time) from KDTA Reporting Station
Clear Clear  
Wind Chill: 60°   Ceiling: Unl
Heat Index: 60°   Visibility: 10mi
Dew Point: 21°   Wind: 0mph
Humidity: 22%   Direction: NA
Pressure: 30.25"   Gusts: NA
Location:  39.35°N, 112.58°W
Report Text: KDTA 301855Z AUTO 00000KT 10SM CLR 16/M06 A3025 RMK AO1 T01581062
Loading
Personal Weather Stations






























Interactive Weather Map
Tropical Storm Tracking
New forecast layout! Learn more

10-Day Weather Forecast

Advertisements
Track Severe Weather on mobile